createdAt,value
2019-05-12T00:00:43.765Z,99118.91
2019-05-12T00:03:14.485Z,99119.08
2019-05-12T00:05:45.206Z,99127.06
2019-05-12T00:08:18.721Z,99125.50
2019-05-12T00:10:48.341Z,99132.52
2019-05-12T00:13:19.149Z,99124.80
2019-05-12T00:15:49.909Z,99125.27
2019-05-12T00:18:20.584Z,99122.42
2019-05-12T00:20:51.214Z,99119.19
2019-05-12T00:23:27.455Z,99116.72
2019-05-12T00:25:54.424Z,99113.48
2019-05-12T00:28:25.010Z,99120.09
2019-05-12T00:30:57.858Z,99125.06
2019-05-12T00:33:28.319Z,99125.86
2019-05-12T00:35:58.979Z,99125.07
2019-05-12T00:38:29.655Z,99126.11
2019-05-12T00:41:00.190Z,99125.86
2019-05-12T00:43:30.723Z,99133.34
2019-05-12T00:46:01.226Z,99135.26
2019-05-12T00:48:31.715Z,99129.50
2019-05-12T00:51:02.231Z,99130.27
2019-05-12T00:53:39.892Z,99128.14
2019-05-12T00:56:05.245Z,99130.13
2019-05-12T00:58:38.118Z,99136.09
2019-05-12T01:01:08.295Z,99131.23
2019-05-12T01:03:39.029Z,99129.08
2019-05-12T01:06:09.659Z,99135.95
2019-05-12T01:08:40.329Z,99135.95
2019-05-12T01:11:11.059Z,99138.05
2019-05-12T01:13:41.666Z,99137.89
2019-05-12T01:16:12.329Z,99137.43
2019-05-12T01:18:42.940Z,99140.66
2019-05-12T01:21:13.622Z,99147.22
2019-05-12T01:23:56.266Z,99150.89
2019-05-12T01:26:17.961Z,99159.05
2019-05-12T01:28:48.923Z,99148.94
2019-05-12T01:31:21.223Z,99150.56
2019-05-12T01:33:51.799Z,99151.45
2019-05-12T01:36:22.385Z,99158.66
2019-05-12T01:38:53.024Z,99160.59
2019-05-12T01:41:23.630Z,99160.92
2019-05-12T01:43:54.192Z,99160.13
2019-05-12T01:46:24.722Z,99172.66
2019-05-12T01:48:55.305Z,99173.48
2019-05-12T01:51:28.323Z,99175.82
2019-05-12T01:54:10.977Z,99171.71
2019-05-12T01:56:30.446Z,99165.38
2019-05-12T01:59:01.216Z,99174.69
2019-05-12T02:01:31.836Z,99175.44
2019-05-12T02:04:02.339Z,99174.39
2019-05-12T02:06:33.029Z,99176.83
2019-05-12T02:09:07.987Z,99179.81
2019-05-12T02:11:38.239Z,99179.91
2019-05-12T02:14:09.377Z,99187.68
2019-05-12T02:16:40.100Z,99195.19
2019-05-12T02:19:10.670Z,99192.05
2019-05-12T02:21:41.304Z,99192.91
2019-05-12T02:24:23.319Z,99203.20
2019-05-12T02:26:44.183Z,99213.16
2019-05-12T02:29:14.840Z,99214.30
2019-05-12T02:31:45.493Z,99222.30
2019-05-12T02:34:16.100Z,99221.64
2019-05-12T02:36:46.741Z,99233.41
2019-05-12T02:39:17.380Z,99225.88
2019-05-12T02:41:48.057Z,99234.11
2019-05-12T02:44:18.653Z,99230.08
2019-05-12T02:46:49.195Z,99229.02
2019-05-12T02:49:20.440Z,99232.00
2019-05-12T02:51:54.522Z,99241.22
2019-05-12T02:54:26.988Z,99240.75
2019-05-12T02:56:57.835Z,99242.17
2019-05-12T02:59:30.850Z,99248.16
2019-05-12T03:02:05.287Z,99254.05
2019-05-12T03:04:36.782Z,99262.39
2019-05-12T03:07:07.519Z,99273.38
2019-05-12T03:09:38.126Z,99268.59
2019-05-12T03:12:08.911Z,99282.27
2019-05-12T03:14:41.126Z,99287.92
2019-05-12T03:17:15.211Z,99291.13
2019-05-12T03:19:44.868Z,99285.33
2019-05-12T03:22:15.713Z,99295.31
2019-05-12T03:25:05.059Z,99294.02
2019-05-12T03:27:18.621Z,99298.41
2019-05-12T03:29:49.145Z,99300.23
2019-05-12T03:32:19.751Z,99301.76
2019-05-12T03:34:50.340Z,99305.13
2019-05-12T03:37:20.890Z,99303.36
2019-05-12T03:39:54.007Z,99311.44
2019-05-12T03:42:25.136Z,99317.42
2019-05-12T03:44:56.120Z,99321.00
2019-05-12T03:47:26.752Z,99327.63
2019-05-12T03:49:57.305Z,99330.89
2019-05-12T03:52:28.415Z,99333.28
2019-05-12T03:54:58.950Z,99339.75
2019-05-12T03:57:29.556Z,99342.53
2019-05-12T04:00:00.052Z,99351.53
2019-05-12T04:02:30.522Z,99352.27
2019-05-12T04:05:04.941Z,99359.34
2019-05-12T04:07:34.422Z,99365.72
2019-05-12T04:10:05.555Z,99368.46
2019-05-12T04:12:36.235Z,99373.38
2019-05-12T04:15:07.448Z,99376.55
2019-05-12T04:17:38.060Z,99384.87
2019-05-12T04:20:08.811Z,99392.88
2019-05-12T04:22:39.349Z,99405.41
2019-05-12T04:25:10.210Z,99402.16
2019-05-12T04:27:41.011Z,99414.09
2019-05-12T04:30:14.414Z,99416.08
2019-05-12T04:32:45.181Z,99416.86
2019-05-12T04:35:16.213Z,99419.92
2019-05-12T04:37:46.871Z,99413.19
2019-05-12T04:40:17.659Z,99416.83
2019-05-12T04:42:48.180Z,99419.31
2019-05-12T04:45:18.851Z,99428.05
2019-05-12T04:47:49.370Z,99431.30
2019-05-12T04:50:20.023Z,99446.47
2019-05-12T04:52:50.495Z,99451.53
2019-05-12T04:55:21.027Z,99455.41
2019-05-12T04:57:54.464Z,99459.26
2019-05-12T05:00:25.670Z,99460.80
2019-05-12T05:02:56.385Z,99467.70
2019-05-12T05:05:27.064Z,99470.97
2019-05-12T05:07:57.720Z,99477.56
2019-05-12T05:10:28.445Z,99486.38
2019-05-12T05:12:59.048Z,99490.97
2019-05-12T05:15:29.616Z,99479.12
2019-05-12T05:18:00.345Z,99488.18
2019-05-12T05:20:31.113Z,99489.11
2019-05-12T05:23:03.486Z,99493.50
2019-05-12T05:25:34.911Z,99494.36
2019-05-12T05:28:06.070Z,99495.80
2019-05-12T05:30:36.679Z,99494.45
2019-05-12T05:33:07.306Z,99496.25
2019-05-12T05:35:39.837Z,99498.83
2019-05-12T05:38:10.854Z,99498.66
2019-05-12T05:40:43.494Z,99504.81
2019-05-12T05:43:18.397Z,99507.11
2019-05-12T05:45:47.109Z,99520.72
2019-05-12T05:48:17.665Z,99517.69
2019-05-12T05:50:48.244Z,99528.16
2019-05-12T05:53:19.843Z,99527.19
2019-05-12T05:55:58.635Z,99539.34
2019-05-12T05:58:25.931Z,99529.80
2019-05-12T06:01:03.012Z,99546.33
2019-05-12T06:03:28.112Z,99534.47
2019-05-12T06:06:01.339Z,99545.08
2019-05-12T06:08:30.938Z,99540.76
2019-05-12T06:11:01.445Z,99546.78
2019-05-12T06:13:34.477Z,99551.41
2019-05-12T06:16:04.581Z,99557.15
2019-05-12T06:18:35.208Z,99561.02
2019-05-12T06:21:05.833Z,99564.56
2019-05-12T06:23:39.175Z,99567.21
2019-05-12T06:26:08.600Z,99564.84
2019-05-12T06:28:41.168Z,99568.09
2019-05-12T06:31:13.836Z,99573.30
2019-05-12T06:33:44.695Z,99577.45
2019-05-12T06:36:22.284Z,99590.47
2019-05-12T06:38:47.930Z,99589.91
2019-05-12T06:41:20.951Z,99602.55
2019-05-12T06:43:54.036Z,99604.42
2019-05-12T06:46:25.935Z,99615.47
2019-05-12T06:49:00.312Z,99612.07
2019-05-12T06:51:30.695Z,99624.38
2019-05-12T06:54:07.288Z,99636.53
2019-05-12T06:56:34.343Z,99644.75
2019-05-12T06:59:09.824Z,99658.32
2019-05-12T07:01:39.729Z,99676.92
2019-05-12T07:04:10.934Z,99694.86
2019-05-12T07:06:44.043Z,99709.14
2019-05-12T07:09:24.228Z,99726.94
2019-05-12T07:11:53.550Z,99742.39
2019-05-12T07:14:23.235Z,99752.05
2019-05-12T07:17:01.752Z,99761.94
2019-05-12T07:19:29.724Z,99765.41
2019-05-12T07:22:00.285Z,99762.78
2019-05-12T07:24:31.330Z,99764.34
2019-05-12T07:27:08.771Z,99764.97
2019-05-12T07:29:35.171Z,99771.31
2019-05-12T07:32:14.775Z,99767.87
2019-05-12T07:34:38.760Z,99764.11
2019-05-12T07:37:09.625Z,99768.47
2019-05-12T07:39:45.449Z,99765.89
2019-05-12T07:42:15.340Z,99764.34
2019-05-12T07:44:48.102Z,99765.57
2019-05-12T07:47:24.134Z,99770.02
2019-05-12T07:49:53.623Z,99781.40
2019-05-12T07:52:24.387Z,99782.41
2019-05-12T07:54:55.935Z,99790.47
2019-05-12T07:57:27.370Z,99795.84
2019-05-12T07:59:58.079Z,99798.09
2019-05-12T08:02:31.702Z,99802.59
2019-05-12T08:05:03.673Z,99807.44
2019-05-12T08:07:33.817Z,99814.72
2019-05-12T08:10:07.256Z,99810.05
2019-05-12T08:12:37.480Z,99824.81
2019-05-12T08:15:09.729Z,99826.91
2019-05-12T08:17:40.880Z,99837.98
2019-05-12T08:20:13.534Z,99836.69
2019-05-12T08:22:44.320Z,99846.78
2019-05-12T08:25:18.693Z,99841.03
2019-05-12T08:27:50.296Z,99848.87
2019-05-12T08:30:45.817Z,99853.80
2019-05-12T08:33:11.797Z,99858.86
2019-05-12T08:35:43.847Z,99859.98
2019-05-12T08:38:14.873Z,99856.55
2019-05-12T08:40:50.711Z,99869.39
2019-05-12T08:43:17.980Z,99870.63
2019-05-12T08:45:48.805Z,99869.79
2019-05-12T08:48:24.135Z,99881.12
2019-05-12T08:50:54.592Z,99879.44
2019-05-12T08:53:26.054Z,99886.37
2019-05-12T08:55:57.285Z,99881.47
2019-05-12T08:58:33.922Z,99883.75
2019-05-12T09:01:00.896Z,99889.03
2019-05-12T09:03:33.536Z,99884.44
2019-05-12T09:06:09.230Z,99887.13
2019-05-12T09:08:43.959Z,99887.63
2019-05-12T09:11:10.375Z,99888.80
2019-05-12T09:13:43.232Z,99892.95
2019-05-12T09:16:13.986Z,99890.25
2019-05-12T09:18:44.875Z,99897.55
2019-05-12T09:21:15.707Z,99895.02
2019-05-12T09:23:46.875Z,99888.33
2019-05-12T09:26:26.709Z,99899.28
2019-05-12T09:28:54.270Z,99893.69
2019-05-12T09:31:29.320Z,99905.45
2019-05-12T09:33:57.897Z,99892.19
2019-05-12T09:36:33.639Z,99902.33
2019-05-12T09:39:06.392Z,99903.53
2019-05-12T09:41:42.501Z,99920.92
2019-05-12T09:44:09.655Z,99920.41
2019-05-12T09:46:40.394Z,99926.37
2019-05-12T09:49:11.111Z,99921.38
2019-05-12T09:51:45.930Z,99941.20
2019-05-12T09:54:19.295Z,99932.92
2019-05-12T09:56:57.793Z,99939.84
2019-05-12T09:59:25.616Z,99950.25
2019-05-12T10:01:55.025Z,99945.58
2019-05-12T10:04:25.730Z,99968.20
2019-05-12T10:06:56.572Z,99967.02
2019-05-12T10:09:29.160Z,99967.95
2019-05-12T10:12:06.360Z,99977.77
2019-05-12T10:14:40.702Z,99983.38
2019-05-12T10:17:25.558Z,99984.18
2019-05-12T10:19:58.140Z,99987.13
2019-05-12T10:22:39.938Z,99996.73
2019-05-12T10:25:11.024Z,99996.92
2019-05-12T10:27:44.337Z,100009.47
2019-05-12T10:30:23.474Z,99999.93
2019-05-12T10:32:54.515Z,99999.36
2019-05-12T10:35:28.424Z,100019.10
2019-05-12T10:38:06.298Z,100024.52
2019-05-12T10:40:37.440Z,100039.18
2019-05-12T10:43:11.183Z,100032.09
2019-05-12T10:45:44.191Z,100034.08
2019-05-12T10:48:18.065Z,100042.91
2019-05-12T10:50:49.735Z,100058.75
2019-05-12T10:53:27.565Z,100059.03
2019-05-12T10:56:02.691Z,100057.53
2019-05-12T10:58:33.685Z,100067.69
2019-05-12T11:01:10.204Z,100088.83
2019-05-12T11:03:42.896Z,100093.72
2019-05-12T11:06:14.817Z,100098.72
2019-05-12T11:08:51.189Z,100102.17
2019-05-12T11:11:25.219Z,100097.80
2019-05-12T11:13:56.410Z,100097.66
2019-05-12T11:16:31.090Z,100094.05
2019-05-12T11:19:06.455Z,100097.86
2019-05-12T11:21:37.073Z,100093.41
2019-05-12T11:24:13.725Z,100091.94
2019-05-12T11:26:43.926Z,100098.77
2019-05-12T11:29:15.870Z,100106.53
2019-05-12T11:31:53.818Z,100091.85
2019-05-12T11:34:30.268Z,100111.31
2019-05-12T11:37:03.252Z,100123.95
2019-05-12T11:39:40.161Z,100119.71
2019-05-12T11:42:13.801Z,100138.31
2019-05-12T11:44:45.849Z,100155.95
2019-05-12T11:47:24.085Z,100162.13
2019-05-12T11:49:58.483Z,100167.83
2019-05-12T11:52:33.495Z,100174.25
2019-05-12T11:55:07.221Z,100177.26
2019-05-12T11:57:39.165Z,100189.81
2019-05-12T12:00:25.201Z,100202.72
2019-05-12T12:02:57.315Z,100200.10
2019-05-12T12:05:28.231Z,100208.38
2019-05-12T12:08:03.716Z,100210.01
2019-05-12T12:10:39.910Z,100208.79
2019-05-12T12:13:14.272Z,100221.16
2019-05-12T12:15:44.959Z,100228.75
2019-05-12T12:18:16.125Z,100227.65
2019-05-12T12:20:55.097Z,100229.78
2019-05-12T12:23:25.175Z,100232.92
2019-05-12T12:25:59.026Z,100240.89
2019-05-12T12:28:34.397Z,100237.67
2019-05-12T12:31:13.220Z,100240.14
2019-05-12T12:33:53.623Z,100241.13
2019-05-12T12:36:25.409Z,100239.89
2019-05-12T12:38:57.360Z,100242.65
2019-05-12T12:41:34.221Z,100247.02
2019-05-12T12:44:07.311Z,100248.61
2019-05-12T12:46:44.146Z,100245.69
2019-05-12T12:49:16.348Z,100246.70
2019-05-12T12:51:49.383Z,100257.90
2019-05-12T12:54:22.916Z,100256.34
2019-05-12T12:57:00.120Z,100261.06
2019-05-12T12:59:30.419Z,100275.42
2019-05-12T13:02:07.457Z,100276.77
2019-05-12T13:04:39.429Z,100280.44
2019-05-12T13:07:13.578Z,100281.37
2019-05-12T13:09:48.263Z,100286.84
2019-05-12T13:12:23.690Z,100298.03
2019-05-12T13:14:58.186Z,100295.88
2019-05-12T13:17:39.969Z,100290.78
2019-05-12T13:20:08.276Z,100289.00
2019-05-12T13:22:44.364Z,100292.79
2019-05-12T13:25:18.124Z,100292.79
2019-05-12T13:27:55.383Z,100306.84
2019-05-12T13:30:26.383Z,100311.90
2019-05-12T13:33:08.702Z,100314.09
2019-05-12T13:35:40.765Z,100318.55
2019-05-12T13:38:16.420Z,100328.27
2019-05-12T13:40:54.283Z,100334.69
2019-05-12T13:43:27.199Z,100334.57
2019-05-12T13:45:58.026Z,100339.59
2019-05-12T13:48:32.445Z,100349.92
2019-05-12T13:51:11.812Z,100346.20
2019-05-12T13:53:40.444Z,100354.77
2019-05-12T13:56:13.635Z,100352.42
2019-05-12T13:58:45.917Z,100364.77
2019-05-12T14:01:24.680Z,100365.80
2019-05-12T14:03:57.130Z,100368.29
2019-05-12T14:06:35.833Z,100368.82
2019-05-12T14:09:04.282Z,100364.30
2019-05-12T14:11:38.165Z,100378.50
2019-05-12T14:14:14.931Z,100374.53
2019-05-12T14:16:53.578Z,100380.88
2019-05-12T14:19:20.870Z,100380.00
2019-05-12T14:21:56.860Z,100379.58
2019-05-12T14:24:33.317Z,100383.26
2019-05-12T14:27:04.120Z,100377.92
2019-05-12T14:29:39.895Z,100375.55
2019-05-12T14:32:17.559Z,100370.14
2019-05-12T14:34:51.025Z,100373.68
2019-05-12T14:37:25.911Z,100372.34
2019-05-12T14:39:56.596Z,100372.61
2019-05-12T14:42:34.662Z,100374.32
2019-05-12T14:45:05.549Z,100364.91
2019-05-12T14:47:43.696Z,100368.17
2019-05-12T14:50:18.930Z,100367.44
2019-05-12T14:52:59.759Z,100371.37
2019-05-12T14:55:44.878Z,100382.43
2019-05-12T14:58:23.751Z,100383.56
2019-05-12T15:00:58.247Z,100383.98
2019-05-12T15:03:30.671Z,100388.82
2019-05-12T15:06:09.415Z,100391.55
2019-05-12T15:08:43.676Z,100399.72
2019-05-12T15:11:16.000Z,100401.01
2019-05-12T15:13:47.815Z,100398.27
2019-05-12T15:16:20.075Z,100401.94
2019-05-12T15:18:54.309Z,100399.13
2019-05-12T15:21:31.445Z,100398.05
2019-05-12T15:24:03.963Z,100401.94
2019-05-12T15:26:38.025Z,100402.95
2019-05-12T15:29:19.768Z,100388.19
2019-05-12T15:31:54.167Z,100401.12
2019-05-12T15:34:24.544Z,100402.89
2019-05-12T15:37:00.349Z,100412.44
2019-05-12T15:39:33.571Z,100406.40
2019-05-12T15:42:06.365Z,100410.28
2019-05-12T15:44:37.119Z,100415.57
2019-05-12T15:47:10.085Z,100415.57
2019-05-12T15:49:40.731Z,100420.09
2019-05-12T15:52:13.980Z,100422.58
2019-05-12T15:55:05.329Z,100406.61
2019-05-12T15:57:38.455Z,100423.70
2019-05-12T16:00:18.811Z,100427.03
2019-05-12T16:02:53.303Z,100419.74
2019-05-12T16:05:29.397Z,100432.48
2019-05-12T16:08:03.638Z,100431.45
2019-05-12T16:10:34.704Z,100442.36
2019-05-12T16:13:06.244Z,100436.64
2019-05-12T16:15:43.689Z,100448.92
2019-05-12T16:18:19.678Z,100446.86
2019-05-12T16:20:59.073Z,100452.79
2019-05-12T16:23:30.293Z,100455.02
2019-05-12T16:26:10.248Z,100460.00
2019-05-12T16:28:40.861Z,100464.93
2019-05-12T16:31:14.271Z,100471.76
2019-05-12T16:34:00.984Z,100473.89
2019-05-12T16:36:29.359Z,100483.00
2019-05-12T16:39:09.141Z,100487.91
2019-05-12T16:41:47.084Z,100486.95
2019-05-12T16:44:23.115Z,100484.95
2019-05-12T16:46:53.461Z,100489.24
2019-05-12T16:49:33.286Z,100495.91
2019-05-12T16:51:59.219Z,100497.83
2019-05-12T16:54:33.447Z,100496.81
2019-05-12T16:57:15.599Z,100502.28
2019-05-12T16:59:44.813Z,100505.14
2019-05-12T17:02:18.895Z,100505.09
2019-05-12T17:04:49.609Z,100502.59
2019-05-12T17:07:27.994Z,100509.32
2019-05-12T17:10:11.778Z,100510.69
2019-05-12T17:12:37.855Z,100512.01
2019-05-12T17:15:19.331Z,100512.95
2019-05-12T17:17:59.285Z,100510.06
2019-05-12T17:20:27.869Z,100515.19
2019-05-12T17:23:00.413Z,100521.23
2019-05-12T17:25:34.952Z,100519.06
2019-05-12T17:28:08.818Z,100521.38
2019-05-12T17:30:43.663Z,100529.95
2019-05-12T17:33:23.103Z,100527.98
2019-05-12T17:35:48.192Z,100528.56
2019-05-12T17:38:21.589Z,100531.63
2019-05-12T17:41:00.431Z,100532.14
2019-05-12T17:43:29.263Z,100528.31
2019-05-12T17:46:04.636Z,100529.02
2019-05-12T17:48:44.932Z,100525.13
2019-05-12T17:51:26.789Z,100530.98
2019-05-12T17:53:55.210Z,100534.59
2019-05-12T17:56:34.070Z,100543.16
2019-05-12T17:59:09.178Z,100542.09
2019-05-12T18:01:43.571Z,100547.12
2019-05-12T18:04:20.352Z,100546.09
2019-05-12T18:06:54.858Z,100553.38
2019-05-12T18:09:30.551Z,100552.34
2019-05-12T18:12:01.708Z,100542.03
2019-05-12T18:14:45.514Z,100555.84
2019-05-12T18:17:15.901Z,100558.93
2019-05-12T18:19:56.513Z,100563.45
2019-05-12T18:22:30.868Z,100569.53
2019-05-12T18:25:04.304Z,100567.98
2019-05-12T18:27:44.621Z,100579.33
2019-05-12T18:30:18.840Z,100572.75
2019-05-12T18:32:55.096Z,100584.08
2019-05-12T18:35:25.632Z,100584.24
2019-05-12T18:37:58.840Z,100581.50
2019-05-12T18:40:34.218Z,100596.73
2019-05-12T18:43:06.452Z,100596.35
2019-05-12T18:45:37.352Z,100602.14
2019-05-12T18:48:20.289Z,100604.09
2019-05-12T18:50:55.662Z,100610.54
2019-05-12T18:53:36.946Z,100615.28
2019-05-12T18:56:19.774Z,100616.31
2019-05-12T18:58:48.854Z,100621.42
2019-05-12T19:01:21.022Z,100631.48
2019-05-12T19:03:57.837Z,100627.31
2019-05-12T19:06:43.977Z,100631.42
2019-05-12T19:09:16.993Z,100638.41
2019-05-12T19:11:55.931Z,100640.41
2019-05-12T19:14:34.797Z,100646.59
2019-05-12T19:16:59.297Z,100650.69
2019-05-12T19:19:34.915Z,100646.56
2019-05-12T19:22:17.244Z,100652.69
2019-05-12T19:24:56.692Z,100653.23
2019-05-12T19:27:27.457Z,100658.36
2019-05-12T19:30:04.495Z,100654.72
2019-05-12T19:32:37.571Z,100660.00
2019-05-12T19:35:17.942Z,100653.42
2019-05-12T19:37:49.702Z,100654.30
2019-05-12T19:40:23.794Z,100659.54
2019-05-12T19:43:03.500Z,100660.06
2019-05-12T19:45:36.242Z,100665.06
2019-05-12T19:48:22.063Z,100668.53
2019-05-12T19:50:44.417Z,100673.09
2019-05-12T19:53:23.913Z,100673.20
2019-05-12T19:55:54.566Z,100671.94
2019-05-12T19:58:34.027Z,100679.94
2019-05-12T20:01:08.780Z,100683.29
2019-05-12T20:03:40.610Z,100686.32
2019-05-12T20:06:13.712Z,100687.39
2019-05-12T20:09:03.701Z,100687.48
2019-05-12T20:11:31.441Z,100696.48
2019-05-12T20:13:59.574Z,100691.71
2019-05-12T20:16:34.608Z,100700.09
2019-05-12T20:19:06.311Z,100699.44
2019-05-12T20:21:43.787Z,100706.89
2019-05-12T20:24:25.407Z,100709.34
2019-05-12T20:26:56.163Z,100700.09
2019-05-12T20:29:33.517Z,100698.63
2019-05-12T20:32:04.844Z,100700.59
2019-05-12T20:34:47.975Z,100706.58
2019-05-12T20:37:16.693Z,100705.13
2019-05-12T20:40:00.190Z,100709.27
2019-05-12T20:42:33.960Z,100710.69
2019-05-12T20:45:03.072Z,100711.97
2019-05-12T20:47:39.206Z,100713.97
2019-05-12T20:50:11.330Z,100714.47
2019-05-12T20:52:51.230Z,100711.63
2019-05-12T20:55:19.747Z,100712.48
2019-05-12T20:58:00.738Z,100711.68
2019-05-12T21:00:33.576Z,100704.43
2019-05-12T21:03:04.452Z,100704.33
2019-05-12T21:05:35.404Z,100699.28
2019-05-12T21:08:11.692Z,100700.57
2019-05-12T21:10:38.637Z,100701.11
2019-05-12T21:13:09.784Z,100702.16
2019-05-12T21:15:42.689Z,100705.72
2019-05-12T21:18:14.718Z,100709.23
2019-05-12T21:20:46.311Z,100707.58
2019-05-12T21:23:17.775Z,100709.13
2019-05-12T21:25:52.503Z,100708.32
2019-05-12T21:28:20.695Z,100708.63
2019-05-12T21:30:53.044Z,100712.16
2019-05-12T21:33:24.045Z,100720.11
2019-05-12T21:35:54.886Z,100718.28
2019-05-12T21:38:29.608Z,100719.78
2019-05-12T21:41:02.068Z,100717.42
2019-05-12T21:43:30.546Z,100718.09
2019-05-12T21:46:06.689Z,100721.96
2019-05-12T21:48:34.039Z,100717.31
2019-05-12T21:51:09.828Z,100718.06
2019-05-12T21:53:37.274Z,100719.02
2019-05-12T21:56:08.007Z,100720.34
2019-05-12T21:58:45.465Z,100719.05
2019-05-12T22:01:13.573Z,100713.58
2019-05-12T22:03:51.662Z,100715.97
2019-05-12T22:06:21.540Z,100711.33
2019-05-12T22:08:55.378Z,100715.16
2019-05-12T22:11:24.012Z,100717.73
2019-05-12T22:13:59.802Z,100723.70
2019-05-12T22:16:29.734Z,100732.98
2019-05-12T22:18:59.671Z,100734.23
2019-05-12T22:21:30.278Z,100732.61
2019-05-12T22:24:03.926Z,100732.34
2019-05-12T22:26:39.669Z,100732.84
2019-05-12T22:29:07.283Z,100724.48
2019-05-12T22:31:38.764Z,100722.89
2019-05-12T22:34:10.391Z,100721.63
2019-05-12T22:36:45.393Z,100720.95
2019-05-12T22:39:14.353Z,100722.99
2019-05-12T22:41:44.953Z,100729.05
2019-05-12T22:44:20.845Z,100731.36
2019-05-12T22:46:48.087Z,100731.84
2019-05-12T22:49:21.054Z,100725.16
2019-05-12T22:51:56.615Z,100728.11
2019-05-12T22:54:24.362Z,100732.89
2019-05-12T22:56:56.925Z,100726.11
2019-05-12T22:59:34.398Z,100731.13
2019-05-12T23:02:00.027Z,100732.37
2019-05-12T23:04:35.462Z,100736.27
2019-05-12T23:07:02.802Z,100733.16
2019-05-12T23:09:34.065Z,100738.52
2019-05-12T23:12:09.620Z,100736.95
2019-05-12T23:14:37.201Z,100734.72
2019-05-12T23:17:07.882Z,100731.77
2019-05-12T23:19:43.035Z,100737.39
2019-05-12T23:22:10.729Z,100738.68
2019-05-12T23:24:41.282Z,100736.88
2019-05-12T23:27:13.635Z,100732.98
2019-05-12T23:29:44.522Z,100736.30
2019-05-12T23:32:15.328Z,100734.55
2019-05-12T23:34:53.949Z,100724.31
2019-05-12T23:37:18.112Z,100729.28
2019-05-12T23:39:48.797Z,100740.75
2019-05-12T23:42:19.467Z,100737.08
2019-05-12T23:44:49.941Z,100741.99
2019-05-12T23:47:20.585Z,100744.24
2019-05-12T23:49:53.119Z,100749.47
2019-05-12T23:52:24.088Z,100754.80
2019-05-12T23:54:54.701Z,100754.39
2019-05-12T23:57:25.361Z,100753.10
2019-05-12T23:59:55.991Z,100759.17
